createdAt,value
2022-09-21T00:01:22.881Z,81.63
2022-09-21T00:03:58.475Z,81.69
2022-09-21T00:06:27.326Z,82.03
2022-09-21T00:08:55.042Z,82.00
2022-09-21T00:11:26.201Z,81.89
2022-09-21T00:14:00.778Z,81.93
2022-09-21T00:16:28.837Z,81.79
2022-09-21T00:18:55.605Z,81.69
2022-09-21T00:21:22.384Z,81.63
2022-09-21T00:23:49.350Z,81.46
2022-09-21T00:26:18.859Z,81.30
2022-09-21T00:28:46.187Z,81.33
2022-09-21T00:31:18.186Z,81.32
2022-09-21T00:33:45.112Z,81.53
2022-09-21T00:36:17.533Z,81.32
2022-09-21T00:38:46.282Z,81.31
2022-09-21T00:41:13.593Z,81.12
2022-09-21T00:43:47.340Z,81.07
2022-09-21T00:46:27.635Z,81.34
2022-09-21T00:48:54.660Z,81.77
2022-09-21T00:51:21.697Z,81.42
2022-09-21T00:53:54.579Z,81.35
2022-09-21T00:56:22.481Z,81.11
2022-09-21T00:58:52.609Z,81.20
2022-09-21T01:01:19.789Z,81.21
2022-09-21T01:03:47.684Z,81.28
2022-09-21T01:06:16.987Z,81.42
2022-09-21T01:08:45.299Z,81.11
2022-09-21T01:11:18.973Z,81.60
2022-09-21T01:14:11.319Z,81.37
2022-09-21T01:17:05.073Z,80.90
2022-09-21T01:19:43.844Z,80.72
2022-09-21T01:22:19.410Z,80.63
2022-09-21T01:25:15.715Z,80.69
2022-09-21T01:28:03.790Z,80.80
2022-09-21T01:30:34.208Z,80.95
2022-09-21T01:33:15.956Z,80.87
2022-09-21T01:35:48.493Z,80.90
2022-09-21T01:38:24.417Z,81.15
2022-09-21T01:40:55.442Z,81.05
2022-09-21T01:43:25.459Z,81.21
2022-09-21T01:45:54.968Z,81.01
2022-09-21T01:48:24.561Z,81.23
2022-09-21T01:50:56.598Z,81.38
2022-09-21T01:53:46.076Z,81.44
2022-09-21T01:56:24.810Z,81.13
2022-09-21T01:59:30.523Z,81.38
2022-09-21T02:02:09.606Z,81.49
2022-09-21T02:04:36.648Z,81.60
2022-09-21T02:07:03.443Z,81.71
2022-09-21T02:09:30.245Z,81.62
2022-09-21T02:11:58.473Z,81.76
2022-09-21T02:14:25.760Z,81.53
2022-09-21T02:17:17.153Z,81.60
2022-09-21T02:19:54.393Z,81.64
2022-09-21T02:22:29.919Z,81.96
2022-09-21T02:25:15.695Z,82.13
2022-09-21T02:27:48.276Z,81.71
2022-09-21T02:30:14.859Z,81.33
2022-09-21T02:32:52.073Z,81.62
2022-09-21T02:35:28.433Z,81.75
2022-09-21T02:38:07.736Z,81.68
2022-09-21T02:40:38.244Z,81.51
2022-09-21T02:43:21.531Z,81.61
2022-09-21T02:46:04.361Z,81.82
2022-09-21T02:48:38.677Z,82.13
2022-09-21T02:51:11.687Z,81.97
2022-09-21T02:53:41.705Z,81.96
2022-09-21T02:56:11.577Z,81.72
2022-09-21T02:58:43.719Z,81.98
2022-09-21T03:01:13.027Z,82.06
2022-09-21T03:03:39.698Z,81.80
2022-09-21T03:06:06.628Z,82.10
2022-09-21T03:08:33.267Z,82.00
2022-09-21T03:10:59.951Z,82.36
2022-09-21T03:13:26.641Z,82.27
2022-09-21T03:16:03.813Z,82.18
2022-09-21T03:18:31.642Z,82.12
2022-09-21T03:20:58.458Z,81.73
2022-09-21T03:23:25.478Z,81.83
2022-09-21T03:25:52.463Z,81.60
2022-09-21T03:28:19.928Z,81.05
2022-09-21T03:30:48.810Z,81.28
2022-09-21T03:33:15.720Z,81.32
2022-09-21T03:35:42.658Z,81.31
2022-09-21T03:38:09.863Z,81.01
2022-09-21T03:40:36.556Z,80.73
2022-09-21T03:43:03.928Z,80.53
2022-09-21T03:45:30.590Z,80.22
2022-09-21T03:47:59.199Z,80.38
2022-09-21T03:50:30.190Z,80.41
2022-09-21T03:52:57.037Z,79.80
2022-09-21T03:55:24.507Z,80.16
2022-09-21T03:57:51.263Z,79.97
2022-09-21T04:00:18.259Z,79.97
2022-09-21T04:02:45.022Z,79.77
2022-09-21T04:05:16.615Z,79.17
2022-09-21T04:07:45.883Z,79.59
2022-09-21T04:10:15.975Z,79.08
2022-09-21T04:12:44.784Z,78.98
2022-09-21T04:15:14.045Z,78.80
2022-09-21T04:17:40.790Z,78.85
2022-09-21T04:20:08.894Z,79.03
2022-09-21T04:22:41.141Z,78.90
2022-09-21T04:25:10.650Z,78.71
2022-09-21T04:27:37.284Z,78.73
2022-09-21T04:30:05.086Z,78.89
2022-09-21T04:32:32.078Z,78.48
2022-09-21T04:34:58.737Z,78.74
2022-09-21T04:37:25.462Z,79.09
2022-09-21T04:39:52.108Z,78.90
2022-09-21T04:42:19.299Z,79.23
2022-09-21T04:44:46.039Z,79.66
2022-09-21T04:47:12.865Z,79.40
2022-09-21T04:49:39.485Z,79.75
2022-09-21T04:52:06.126Z,79.91
2022-09-21T04:54:32.804Z,79.86
2022-09-21T04:56:59.577Z,80.04
2022-09-21T04:59:26.249Z,79.82
2022-09-21T05:01:53.164Z,79.73
2022-09-21T05:04:19.844Z,79.92
2022-09-21T05:06:46.471Z,79.97
2022-09-21T05:09:31.596Z,80.18
2022-09-21T05:11:58.256Z,80.28
2022-09-21T05:14:24.947Z,80.11
2022-09-21T05:16:51.647Z,80.15
2022-09-21T05:19:18.401Z,80.14
2022-09-21T05:21:45.075Z,80.59
2022-09-21T05:24:11.775Z,79.99
2022-09-21T05:26:38.535Z,79.99
2022-09-21T05:29:05.643Z,80.37
2022-09-21T05:31:44.713Z,80.49
2022-09-21T05:34:56.486Z,80.53
2022-09-21T05:37:28.932Z,80.32
2022-09-21T05:39:55.912Z,80.13
2022-09-21T05:42:22.841Z,80.25
2022-09-21T05:44:50.722Z,80.19
2022-09-21T05:47:20.386Z,80.50
2022-09-21T05:50:01.369Z,80.66
2022-09-21T05:52:50.098Z,81.03
2022-09-21T05:55:36.086Z,80.89
2022-09-21T05:58:21.218Z,80.91
2022-09-21T06:01:02.972Z,81.27
2022-09-21T06:03:32.229Z,81.43
2022-09-21T06:05:59.430Z,81.78
2022-09-21T06:08:26.853Z,81.67
2022-09-21T06:10:54.870Z,82.12
2022-09-21T06:13:21.659Z,82.03
2022-09-21T06:15:48.353Z,82.28
2022-09-21T06:18:17.959Z,82.46
2022-09-21T06:20:45.183Z,82.69
2022-09-21T06:23:15.487Z,82.99
2022-09-21T06:25:42.214Z,82.91
2022-09-21T06:28:10.731Z,83.16
2022-09-21T06:30:39.368Z,83.04
2022-09-21T06:33:07.127Z,82.93
2022-09-21T06:35:35.639Z,82.89
2022-09-21T06:38:07.526Z,82.92
2022-09-21T06:40:36.929Z,83.46
2022-09-21T06:43:04.664Z,83.52
2022-09-21T06:45:32.313Z,83.59
2022-09-21T06:47:59.378Z,83.73
2022-09-21T06:50:26.108Z,84.02
2022-09-21T06:52:52.825Z,84.03
2022-09-21T06:55:20.094Z,83.66
2022-09-21T06:57:46.904Z,83.75
2022-09-21T07:00:14.345Z,83.85
2022-09-21T07:02:45.554Z,83.40
2022-09-21T07:05:12.869Z,83.22
2022-09-21T07:07:40.538Z,83.30
2022-09-21T07:10:14.435Z,83.96
2022-09-21T07:12:44.105Z,84.00
2022-09-21T07:15:10.974Z,83.61
2022-09-21T07:17:39.378Z,83.64
2022-09-21T07:20:07.992Z,83.66
2022-09-21T07:22:36.318Z,83.18
2022-09-21T07:25:04.571Z,83.14
2022-09-21T07:27:32.721Z,83.33
2022-09-21T07:29:59.358Z,83.05
2022-09-21T07:32:26.345Z,83.21
2022-09-21T07:34:56.547Z,82.73
2022-09-21T07:37:27.345Z,82.72
2022-09-21T07:39:54.170Z,82.58
2022-09-21T07:42:22.953Z,82.68
2022-09-21T07:44:50.873Z,82.92
2022-09-21T07:47:17.898Z,83.22
2022-09-21T07:49:44.828Z,83.37
2022-09-21T07:52:12.188Z,83.20
2022-09-21T07:54:38.804Z,83.02
2022-09-21T07:57:24.153Z,82.97
2022-09-21T07:59:50.771Z,82.91
2022-09-21T08:02:17.591Z,82.33
2022-09-21T08:04:44.239Z,82.77
2022-09-21T08:07:10.879Z,82.19
2022-09-21T08:09:37.822Z,82.64
2022-09-21T08:12:04.531Z,82.36
2022-09-21T08:14:31.955Z,82.48
2022-09-21T08:16:58.690Z,82.44
2022-09-21T08:19:26.710Z,82.54
2022-09-21T08:21:57.643Z,82.03
2022-09-21T08:24:26.731Z,82.30
2022-09-21T08:26:55.882Z,81.55
2022-09-21T08:29:23.967Z,81.83
2022-09-21T08:31:50.930Z,81.14
2022-09-21T08:34:17.959Z,80.96
2022-09-21T08:36:44.602Z,80.84
2022-09-21T08:39:11.337Z,81.20
2022-09-21T08:41:53.077Z,81.05
2022-09-21T08:44:31.975Z,81.10
2022-09-21T08:47:17.421Z,81.22
2022-09-21T08:49:51.355Z,80.98
2022-09-21T08:52:21.372Z,81.29
2022-09-21T08:55:05.959Z,81.29
2022-09-21T08:57:34.206Z,81.19
2022-09-21T09:00:02.005Z,81.29
2022-09-21T09:02:28.656Z,80.48
2022-09-21T09:05:24.923Z,79.98
2022-09-21T09:08:09.613Z,79.67
2022-09-21T09:10:48.994Z,80.10
2022-09-21T09:13:41.093Z,80.00
2022-09-21T09:16:45.017Z,79.89
2022-09-21T09:19:50.028Z,80.50
2022-09-21T09:22:25.662Z,80.36
2022-09-21T09:24:55.312Z,80.60
2022-09-21T09:27:28.750Z,79.67
2022-09-21T09:30:10.651Z,79.80
2022-09-21T09:32:51.541Z,78.81
2022-09-21T09:35:42.953Z,79.57
2022-09-21T09:38:19.986Z,78.25
2022-09-21T09:41:08.430Z,78.75
2022-09-21T09:43:47.215Z,78.42
2022-09-21T09:46:26.292Z,78.59
2022-09-21T09:49:14.501Z,77.67
2022-09-21T09:51:41.447Z,77.80
2022-09-21T09:54:14.507Z,77.62
2022-09-21T09:56:41.848Z,76.69
2022-09-21T09:59:19.330Z,76.46
2022-09-21T10:01:47.467Z,76.99
2022-09-21T10:04:17.557Z,75.40
2022-09-21T10:06:46.707Z,73.69
2022-09-21T10:09:24.593Z,73.01
2022-09-21T10:11:53.321Z,71.35
2022-09-21T10:14:23.987Z,71.40
2022-09-21T10:16:54.467Z,71.08
2022-09-21T10:19:25.189Z,70.75
2022-09-21T10:22:00.373Z,70.02
2022-09-21T10:24:30.822Z,70.28
2022-09-21T10:27:05.202Z,69.71
2022-09-21T10:29:40.157Z,70.66
2022-09-21T10:32:14.766Z,71.08
2022-09-21T10:35:00.560Z,69.72
2022-09-21T10:37:29.929Z,68.72
2022-09-21T10:39:57.334Z,67.55
2022-09-21T10:42:24.038Z,68.09
2022-09-21T10:45:12.249Z,65.59
2022-09-21T10:47:52.405Z,64.77
2022-09-21T10:50:35.802Z,65.36
2022-09-21T10:53:19.582Z,63.94
2022-09-21T10:56:21.864Z,64.57
2022-09-21T10:59:28.550Z,61.99
2022-09-21T11:01:57.711Z,64.81
2022-09-21T11:04:32.815Z,64.92
2022-09-21T11:07:12.671Z,63.27
2022-09-21T11:10:04.077Z,59.74
2022-09-21T11:12:35.804Z,61.27
2022-09-21T11:15:18.250Z,60.53
2022-09-21T11:17:51.346Z,61.09
2022-09-21T11:20:36.301Z,59.76
2022-09-21T11:23:43.214Z,57.71
2022-09-21T11:26:21.750Z,60.77
2022-09-21T11:28:57.695Z,60.43
2022-09-21T11:31:27.954Z,61.43
2022-09-21T11:34:32.046Z,60.38
2022-09-21T11:37:01.399Z,60.64
2022-09-21T11:39:50.568Z,60.77
2022-09-21T11:42:33.532Z,61.52
2022-09-21T11:45:02.161Z,61.82
2022-09-21T11:47:46.811Z,61.48
2022-09-21T11:50:40.290Z,58.13
2022-09-21T11:53:14.403Z,59.72
2022-09-21T11:56:09.782Z,55.87
2022-09-21T11:58:39.828Z,59.01
2022-09-21T12:01:45.459Z,55.70
2022-09-21T12:04:15.116Z,59.50
2022-09-21T12:06:53.747Z,59.49
2022-09-21T12:09:43.981Z,57.64
2022-09-21T12:12:25.954Z,58.20
2022-09-21T12:15:22.446Z,59.27
2022-09-21T12:18:06.423Z,60.65
2022-09-21T12:20:44.815Z,59.15
2022-09-21T12:23:23.433Z,60.62
2022-09-21T12:25:54.754Z,60.40
2022-09-21T12:28:27.509Z,60.60
2022-09-21T12:31:01.028Z,60.41
2022-09-21T12:33:47.539Z,60.51
2022-09-21T12:36:20.501Z,61.13
2022-09-21T12:39:03.450Z,60.97
2022-09-21T12:41:46.248Z,61.61
2022-09-21T12:44:21.572Z,62.36
2022-09-21T12:46:55.167Z,63.58
2022-09-21T12:49:29.900Z,62.80
2022-09-21T12:52:06.850Z,63.07
2022-09-21T12:55:01.443Z,60.56
2022-09-21T12:58:14.663Z,57.95
2022-09-21T13:01:20.789Z,58.75
2022-09-21T13:04:23.163Z,59.28
2022-09-21T13:07:32.730Z,59.21
2022-09-21T13:10:07.578Z,58.96
2022-09-21T13:12:42.185Z,58.26
2022-09-21T13:15:25.409Z,59.18
2022-09-21T13:18:05.841Z,59.92
2022-09-21T13:20:40.953Z,60.00
2022-09-21T13:23:16.540Z,60.20
2022-09-21T13:25:59.331Z,60.22
2022-09-21T13:28:41.899Z,58.30
2022-09-21T13:31:30.158Z,59.93
2022-09-21T13:34:21.993Z,59.64
2022-09-21T13:37:17.855Z,58.39
2022-09-21T13:39:48.546Z,57.36
2022-09-21T13:42:30.164Z,55.37
2022-09-21T13:44:58.574Z,55.75
2022-09-21T13:47:34.480Z,55.89
2022-09-21T13:50:11.107Z,56.75
2022-09-21T13:52:44.654Z,56.66
2022-09-21T13:55:39.152Z,56.03
2022-09-21T13:58:19.571Z,56.30
2022-09-21T14:00:56.000Z,56.07
2022-09-21T14:03:38.467Z,55.95
2022-09-21T14:06:25.088Z,56.62
2022-09-21T14:09:00.115Z,57.21
2022-09-21T14:11:47.338Z,57.40
2022-09-21T14:14:24.544Z,58.04
2022-09-21T14:16:55.888Z,58.09
2022-09-21T14:19:23.202Z,58.72
2022-09-21T14:22:07.830Z,57.19
2022-09-21T14:24:42.750Z,58.04
2022-09-21T14:27:23.668Z,57.10
2022-09-21T14:29:53.149Z,56.51
2022-09-21T14:32:26.399Z,57.84
2022-09-21T14:35:01.512Z,58.28
2022-09-21T14:37:34.317Z,57.72
2022-09-21T14:40:16.626Z,58.22
2022-09-21T14:42:43.627Z,58.03
2022-09-21T14:45:18.313Z,58.29
2022-09-21T14:47:54.132Z,58.79
2022-09-21T14:50:52.801Z,59.09
2022-09-21T14:53:39.283Z,59.32
2022-09-21T14:56:30.252Z,59.55
2022-09-21T14:59:04.487Z,59.99
2022-09-21T15:01:34.473Z,60.57
2022-09-21T15:04:30.677Z,60.50
2022-09-21T15:07:28.423Z,60.97
2022-09-21T15:10:40.344Z,60.81
2022-09-21T15:13:28.779Z,61.24
2022-09-21T15:16:22.081Z,61.07
2022-09-21T15:19:04.588Z,60.04
2022-09-21T15:21:34.131Z,60.94
2022-09-21T15:24:34.709Z,60.79
2022-09-21T15:27:10.485Z,60.74
2022-09-21T15:29:37.891Z,61.13
2022-09-21T15:32:07.051Z,60.54
2022-09-21T15:34:33.870Z,60.59
2022-09-21T15:37:13.137Z,60.33
2022-09-21T15:39:43.097Z,60.04
2022-09-21T15:42:09.729Z,60.34
2022-09-21T15:44:38.575Z,60.45
2022-09-21T15:47:12.645Z,59.75
2022-09-21T15:49:40.158Z,59.73
2022-09-21T15:52:40.228Z,59.87
2022-09-21T15:55:19.285Z,59.60
2022-09-21T15:57:47.082Z,60.02
2022-09-21T16:00:16.528Z,59.57
2022-09-21T16:02:57.817Z,59.23
2022-09-21T16:05:25.766Z,59.92
2022-09-21T16:08:07.507Z,59.40
2022-09-21T16:10:34.107Z,60.21
2022-09-21T16:13:39.617Z,60.05
2022-09-21T16:16:09.345Z,60.71
2022-09-21T16:18:45.587Z,60.75
2022-09-21T16:21:32.730Z,60.96
2022-09-21T16:24:18.067Z,60.69
2022-09-21T16:26:57.923Z,61.85
2022-09-21T16:29:37.820Z,61.80
2022-09-21T16:32:19.988Z,62.33
2022-09-21T16:34:48.453Z,62.52
2022-09-21T16:37:28.808Z,62.79
2022-09-21T16:39:58.164Z,63.00
2022-09-21T16:42:28.033Z,63.52
2022-09-21T16:44:55.454Z,63.81
2022-09-21T16:47:26.886Z,64.13
2022-09-21T16:50:00.432Z,64.30
2022-09-21T16:52:29.277Z,64.25
2022-09-21T16:54:58.770Z,63.97
2022-09-21T16:57:26.663Z,64.30
2022-09-21T16:59:53.797Z,64.50
2022-09-21T17:02:20.756Z,64.64
2022-09-21T17:04:48.242Z,64.68
2022-09-21T17:07:15.770Z,64.59
2022-09-21T17:09:46.420Z,64.79
2022-09-21T17:12:16.034Z,65.04
2022-09-21T17:14:46.692Z,65.18
2022-09-21T17:17:23.714Z,65.06
2022-09-21T17:19:52.345Z,64.78
2022-09-21T17:22:19.744Z,64.77
2022-09-21T17:24:51.418Z,65.03
2022-09-21T17:27:24.125Z,65.13
2022-09-21T17:29:54.023Z,65.55
2022-09-21T17:32:23.822Z,65.58
2022-09-21T17:35:01.805Z,65.96
2022-09-21T17:37:29.501Z,65.73
2022-09-21T17:39:56.189Z,66.34
2022-09-21T17:42:24.663Z,66.41
2022-09-21T17:45:13.082Z,66.16
2022-09-21T17:47:40.809Z,66.67
2022-09-21T17:50:14.029Z,66.66
2022-09-21T17:53:02.626Z,66.83
2022-09-21T17:55:30.462Z,66.71
2022-09-21T17:58:07.064Z,66.75
2022-09-21T18:00:52.463Z,66.82
2022-09-21T18:03:28.196Z,66.54
2022-09-21T18:06:00.886Z,67.26
2022-09-21T18:08:29.279Z,67.41
2022-09-21T18:11:33.091Z,67.58
2022-09-21T18:14:30.595Z,68.00
2022-09-21T18:17:34.722Z,67.97
2022-09-21T18:20:22.624Z,67.79
2022-09-21T18:22:49.196Z,68.14
2022-09-21T18:25:23.808Z,67.97
2022-09-21T18:27:51.273Z,68.12
2022-09-21T18:30:18.761Z,68.03
2022-09-21T18:32:59.190Z,68.42
2022-09-21T18:35:34.931Z,68.58
2022-09-21T18:38:10.555Z,68.89
2022-09-21T18:40:56.376Z,68.63
2022-09-21T18:44:00.650Z,68.67
2022-09-21T18:46:50.729Z,68.39
2022-09-21T18:49:38.965Z,68.38
2022-09-21T18:52:35.900Z,68.25
2022-09-21T18:55:12.886Z,68.15
2022-09-21T18:57:39.872Z,68.38
2022-09-21T19:00:10.997Z,68.76
2022-09-21T19:02:48.719Z,68.95
2022-09-21T19:05:25.039Z,68.75
2022-09-21T19:08:20.604Z,68.60
2022-09-21T19:11:03.827Z,69.03
2022-09-21T19:13:47.102Z,69.03
2022-09-21T19:16:31.564Z,69.12
2022-09-21T19:19:35.891Z,69.35
2022-09-21T19:22:16.569Z,69.65
2022-09-21T19:25:00.758Z,69.20
2022-09-21T19:27:45.293Z,69.94
2022-09-21T19:30:17.035Z,69.63
2022-09-21T19:32:53.921Z,69.66
2022-09-21T19:35:24.201Z,69.53
2022-09-21T19:37:53.788Z,69.67
2022-09-21T19:40:26.951Z,69.50
2022-09-21T19:42:59.756Z,69.83
2022-09-21T19:45:45.296Z,69.76
2022-09-21T19:48:15.674Z,70.51
2022-09-21T19:50:53.266Z,70.44
2022-09-21T19:53:40.090Z,70.72
2022-09-21T19:56:31.889Z,71.16
2022-09-21T19:59:17.689Z,70.63
2022-09-21T20:01:54.977Z,71.17
2022-09-21T20:04:56.185Z,71.32
2022-09-21T20:07:30.270Z,71.26
2022-09-21T20:10:17.451Z,71.73
2022-09-21T20:12:56.702Z,71.33
2022-09-21T20:15:33.647Z,71.26
2022-09-21T20:18:10.402Z,71.37
2022-09-21T20:20:38.138Z,71.31
2022-09-21T20:23:05.275Z,71.45
2022-09-21T20:25:41.236Z,71.51
2022-09-21T20:28:08.445Z,71.68
2022-09-21T20:30:38.377Z,71.98
2022-09-21T20:33:10.956Z,72.11
2022-09-21T20:35:37.746Z,72.49
2022-09-21T20:38:05.226Z,72.62
2022-09-21T20:40:32.479Z,72.91
2022-09-21T20:43:01.242Z,72.93
2022-09-21T20:45:29.277Z,72.96
2022-09-21T20:47:57.253Z,73.23
2022-09-21T20:50:26.720Z,73.45
2022-09-21T20:52:53.341Z,73.52
2022-09-21T20:55:20.488Z,73.53
2022-09-21T20:57:47.274Z,73.45
2022-09-21T21:00:16.124Z,73.23
2022-09-21T21:02:43.416Z,73.13
2022-09-21T21:05:11.319Z,73.32
2022-09-21T21:07:42.550Z,73.04
2022-09-21T21:10:13.316Z,73.24
2022-09-21T21:12:41.905Z,73.38
2022-09-21T21:15:14.379Z,73.51
2022-09-21T21:17:42.194Z,73.29
2022-09-21T21:20:11.875Z,73.15
2022-09-21T21:22:38.547Z,73.28
2022-09-21T21:25:05.561Z,73.68
2022-09-21T21:27:32.529Z,73.77
2022-09-21T21:29:59.746Z,73.80
2022-09-21T21:32:26.778Z,73.77
2022-09-21T21:34:54.908Z,73.84
2022-09-21T21:37:25.059Z,73.86
2022-09-21T21:39:53.129Z,73.95
2022-09-21T21:42:20.722Z,74.08
2022-09-21T21:44:51.807Z,73.78
2022-09-21T21:47:39.120Z,73.96
2022-09-21T21:50:06.070Z,73.88
2022-09-21T21:52:32.839Z,74.36
2022-09-21T21:54:59.517Z,74.05
2022-09-21T21:57:26.204Z,73.75
2022-09-21T21:59:53.133Z,73.66
2022-09-21T22:02:20.196Z,73.67
2022-09-21T22:04:46.931Z,73.75
2022-09-21T22:07:13.691Z,73.81
2022-09-21T22:09:40.400Z,73.84
2022-09-21T22:12:07.194Z,73.34
2022-09-21T22:14:33.861Z,73.11
2022-09-21T22:17:00.628Z,73.21
2022-09-21T22:19:27.318Z,73.25
2022-09-21T22:21:54.930Z,73.18
2022-09-21T22:24:21.919Z,73.09
2022-09-21T22:26:51.148Z,73.23
2022-09-21T22:29:17.924Z,73.58
2022-09-21T22:31:47.249Z,73.74
2022-09-21T22:34:14.996Z,74.16
2022-09-21T22:36:44.345Z,74.59
2022-09-21T22:39:12.230Z,74.67
2022-09-21T22:41:41.110Z,74.95
2022-09-21T22:44:11.251Z,74.99
2022-09-21T22:46:38.641Z,75.17
2022-09-21T22:49:05.714Z,75.41
2022-09-21T22:51:36.290Z,75.62
2022-09-21T22:54:03.042Z,75.64
2022-09-21T22:56:31.848Z,75.88
2022-09-21T22:59:00.314Z,75.94
2022-09-21T23:01:34.176Z,76.13
2022-09-21T23:04:03.900Z,75.59
2022-09-21T23:06:33.501Z,75.54
2022-09-21T23:09:02.731Z,75.79
2022-09-21T23:11:32.570Z,75.87
2022-09-21T23:13:59.743Z,75.55
2022-09-21T23:16:28.270Z,75.38
2022-09-21T23:18:55.781Z,75.36
2022-09-21T23:21:26.171Z,75.45
2022-09-21T23:24:01.543Z,75.16
2022-09-21T23:26:42.425Z,74.67
2022-09-21T23:29:19.345Z,74.46
2022-09-21T23:31:51.367Z,74.58
2022-09-21T23:34:20.360Z,74.52
2022-09-21T23:36:49.059Z,74.70
2022-09-21T23:39:16.093Z,74.63
2022-09-21T23:41:45.541Z,75.13
2022-09-21T23:44:12.617Z,75.60
2022-09-21T23:46:40.483Z,75.47
2022-09-21T23:49:07.341Z,75.62
2022-09-21T23:51:34.881Z,75.83
2022-09-21T23:54:01.749Z,75.77
2022-09-21T23:56:28.949Z,75.50
2022-09-21T23:58:56.081Z,75.26
